Aviation Digital Data Service (ADDS)

Output produced by METARs form (2014 UTC 20 August 2019)
found at http://www.aviationweather.gov/metar/data/
 
METAR text: BGSF 201950Z 11007KT 9999 FEW050 15/00 Q1010
Conditions at: BGSF (SONDRE STROMFJOR, GL) observed 1950 UTC 20 August 2019
Temperature: 15.0°C (59°F)
Dewpoint: 0.0°C (32°F) [RH = 36%]
Pressure (altimeter): 29.82 inches Hg (1010.0 mb)
Winds: from the ESE (110 degrees) at 8 MPH (7 knots; 3.6 m/s)
Visibility: 6 or more miles (10+ km)
Ceiling: at least 12,000 feet AGL
Clouds: few clouds at 5000 feet AGL
Weather: no significant weather observed at this time

METAR text: BGSF 201850Z 13006KT 040V180 9999 FEW050 15/M00 Q1010
Conditions at: BGSF (SONDRE STROMFJOR, GL) observed 1850 UTC 20 August 2019
Temperature: 15.0°C (59°F)
Dewpoint: 0.0°C (32°F) [RH = 36%]
Pressure (altimeter): 29.82 inches Hg (1010.0 mb)
Winds: from the SE (130 degrees) at 7 MPH (6 knots; 3.1 m/s)
Visibility: 6 or more miles (10+ km)
Ceiling: at least 12,000 feet AGL
Clouds: few clouds at 5000 feet AGL
Weather: no significant weather observed at this time

METAR text: BGSF 201750Z 08006KT 040V120 9999 FEW050 15/00 Q1010
Conditions at: BGSF (SONDRE STROMFJOR, GL) observed 1750 UTC 20 August 2019
Temperature: 15.0°C (59°F)
Dewpoint: 0.0°C (32°F) [RH = 36%]
Pressure (altimeter): 29.82 inches Hg (1010.0 mb)
Winds: from the E (80 degrees) at 7 MPH (6 knots; 3.1 m/s)
Visibility: 6 or more miles (10+ km)
Ceiling: at least 12,000 feet AGL
Clouds: few clouds at 5000 feet AGL
Weather: no significant weather observed at this time

METAR text: BGSF 201650Z 12004KT 050V180 9999 FEW050 15/M01 Q1010
Conditions at: BGSF (SONDRE STROMFJOR, GL) observed 1650 UTC 20 August 2019
Temperature: 15.0°C (59°F)
Dewpoint: -1.0°C (30°F) [RH = 33%]
Pressure (altimeter): 29.82 inches Hg (1010.0 mb)
Winds: from the ESE (120 degrees) at 5 MPH (4 knots; 2.1 m/s)
Visibility: 6 or more miles (10+ km)
Ceiling: at least 12,000 feet AGL
Clouds: few clouds at 5000 feet AGL
Weather: no significant weather observed at this time

METAR text: BGSF 201550Z 13006KT 080V200 9999 FEW045 14/01 Q1010
Conditions at: BGSF (SONDRE STROMFJOR, GL) observed 1550 UTC 20 August 2019
Temperature: 14.0°C (57°F)
Dewpoint: 1.0°C (34°F) [RH = 41%]
Pressure (altimeter): 29.82 inches Hg (1010.0 mb)
Winds: from the SE (130 degrees) at 7 MPH (6 knots; 3.1 m/s)
Visibility: 6 or more miles (10+ km)
Ceiling: at least 12,000 feet AGL
Clouds: few clouds at 4500 feet AGL
Weather: no significant weather observed at this time

METAR text: BGSF 201450Z AUTO 12004KT 070V170 9999NDV NCD 13/01 Q1010
Conditions at: BGSF (SONDRE STROMFJOR, GL) observed 1450 UTC 20 August 2019
Temperature: 13.0°C (55°F)
Dewpoint: 1.0°C (34°F) [RH = 44%]
Pressure (altimeter): 29.82 inches Hg (1010.0 mb)
Winds: from the ESE (120 degrees) at 5 MPH (4 knots; 2.1 m/s)
Visibility: missing
Ceiling: at least 12,000 feet AGL
Clouds: sky clear below 12,000 feet AGL
Weather: no significant weather observed at this time

METAR text: BGSF 201350Z AUTO 10005KT 050V160 9999NDV NCD 12/02 Q1011
Conditions at: BGSF (SONDRE STROMFJOR, GL) observed 1350 UTC 20 August 2019
Temperature: 12.0°C (54°F)
Dewpoint: 2.0°C (36°F) [RH = 50%]
Pressure (altimeter): 29.85 inches Hg (1011.0 mb)
Winds: from the E (100 degrees) at 6 MPH (5 knots; 2.6 m/s)
Visibility: missing
Ceiling: at least 12,000 feet AGL
Clouds: sky clear below 12,000 feet AGL
Weather: no significant weather observed at this time

METAR text: BGSF 201250Z AUTO 10006KT 050V130 9999NDV NCD 10/03 Q1011
Conditions at: BGSF (SONDRE STROMFJOR, GL) observed 1250 UTC 20 August 2019
Temperature: 10.0°C (50°F)
Dewpoint: 3.0°C (37°F) [RH = 62%]
Pressure (altimeter): 29.85 inches Hg (1011.0 mb)
Winds: from the E (100 degrees) at 7 MPH (6 knots; 3.1 m/s)
Visibility: missing
Ceiling: at least 12,000 feet AGL
Clouds: sky clear below 12,000 feet AGL
Weather: no significant weather observed at this time

METAR text: BGSF 201150Z AUTO 11005KT 080V140 9999NDV NCD 09/03 Q1011
Conditions at: BGSF (SONDRE STROMFJOR, GL) observed 1150 UTC 20 August 2019
Temperature: 9.0°C (48°F)
Dewpoint: 3.0°C (37°F) [RH = 66%]
Pressure (altimeter): 29.85 inches Hg (1011.0 mb)
Winds: from the ESE (110 degrees) at 6 MPH (5 knots; 2.6 m/s)
Visibility: missing
Ceiling: at least 12,000 feet AGL
Clouds: sky clear below 12,000 feet AGL
Weather: no significant weather observed at this time

METAR text: BGSF 201050Z AUTO 05005KT 020V080 9999NDV SCT060/// 08/03 Q1011
Conditions at: BGSF (SONDRE STROMFJOR, GL) observed 1050 UTC 20 August 2019
Temperature: 8.0°C (46°F)
Dewpoint: 3.0°C (37°F) [RH = 71%]
Pressure (altimeter): 29.85 inches Hg (1011.0 mb)
Winds: from the NE (50 degrees) at 6 MPH (5 knots; 2.6 m/s)
Visibility: missing
Ceiling: at least 12,000 feet AGL
Clouds: scattered clouds at 6000 feet AGL
Weather: no significant weather observed at this time

METAR text: BGSF 200950Z AUTO 04004KT 9999NDV NCD 07/02 Q1011
Conditions at: BGSF (SONDRE STROMFJOR, GL) observed 0950 UTC 20 August 2019
Temperature: 7.0°C (45°F)
Dewpoint: 2.0°C (36°F) [RH = 70%]
Pressure (altimeter): 29.85 inches Hg (1011.0 mb)
Winds: from the NE (40 degrees) at 5 MPH (4 knots; 2.1 m/s)
Visibility: missing
Ceiling: at least 12,000 feet AGL
Clouds: sky clear below 12,000 feet AGL
Weather: no significant weather observed at this time

METAR text: BGSF 200850Z AUTO 04005KT 010V070 9999NDV SCT060/// 04/01 Q1011
Conditions at: BGSF (SONDRE STROMFJOR, GL) observed 0850 UTC 20 August 2019
Temperature: 4.0°C (39°F)
Dewpoint: 1.0°C (34°F) [RH = 81%]
Pressure (altimeter): 29.85 inches Hg (1011.0 mb)
Winds: from the NE (40 degrees) at 6 MPH (5 knots; 2.6 m/s)
Visibility: missing
Ceiling: at least 12,000 feet AGL
Clouds: scattered clouds at 6000 feet AGL
Weather: no significant weather observed at this time

METAR text: BGSF 200750Z AUTO 05005KT 010V080 9999NDV BKN065/// 03/01 Q1011
Conditions at: BGSF (SONDRE STROMFJOR, GL) observed 0750 UTC 20 August 2019
Temperature: 3.0°C (37°F)
Dewpoint: 1.0°C (34°F) [RH = 87%]
Pressure (altimeter): 29.85 inches Hg (1011.0 mb)
Winds: from the NE (50 degrees) at 6 MPH (5 knots; 2.6 m/s)
Visibility: missing
Ceiling: 6500 feet AGL
Clouds: broken clouds at 6500 feet AGL
Weather: no significant weather observed at this time

METAR text: BGSF 200650Z AUTO 07006KT 9999NDV BKN065/// 05/01 Q1011
Conditions at: BGSF (SONDRE STROMFJOR, GL) observed 0650 UTC 20 August 2019
Temperature: 5.0°C (41°F)
Dewpoint: 1.0°C (34°F) [RH = 75%]
Pressure (altimeter): 29.85 inches Hg (1011.0 mb)
Winds: from the ENE (70 degrees) at 7 MPH (6 knots; 3.1 m/s)
Visibility: missing
Ceiling: 6500 feet AGL
Clouds: broken clouds at 6500 feet AGL
Weather: no significant weather observed at this time

METAR text: BGSF 200550Z AUTO 05007KT 020V080 9999NDV BKN065/// 05/01 Q1011
Conditions at: BGSF (SONDRE STROMFJOR, GL) observed 0550 UTC 20 August 2019
Temperature: 5.0°C (41°F)
Dewpoint: 1.0°C (34°F) [RH = 75%]
Pressure (altimeter): 29.85 inches Hg (1011.0 mb)
Winds: from the NE (50 degrees) at 8 MPH (7 knots; 3.6 m/s)
Visibility: missing
Ceiling: 6500 feet AGL
Clouds: broken clouds at 6500 feet AGL
Weather: no significant weather observed at this time

METAR text: BGSF 200450Z AUTO 03007KT 9999NDV BKN060/// 04/02 Q1010
Conditions at: BGSF (SONDRE STROMFJOR, GL) observed 0450 UTC 20 August 2019
Temperature: 4.0°C (39°F)
Dewpoint: 2.0°C (36°F) [RH = 87%]
Pressure (altimeter): 29.82 inches Hg (1010.0 mb)
Winds: from the NNE (30 degrees) at 8 MPH (7 knots; 3.6 m/s)
Visibility: missing
Ceiling: 6000 feet AGL
Clouds: broken clouds at 6000 feet AGL
Weather: no significant weather observed at this time

METAR text: BGSF 200350Z AUTO 04006KT 9999NDV BKN060/// OVC075/// 05/02 Q1010
Conditions at: BGSF (SONDRE STROMFJOR, GL) observed 0350 UTC 20 August 2019
Temperature: 5.0°C (41°F)
Dewpoint: 2.0°C (36°F) [RH = 81%]
Pressure (altimeter): 29.82 inches Hg (1010.0 mb)
Winds: from the NE (40 degrees) at 7 MPH (6 knots; 3.1 m/s)
Visibility: missing
Ceiling: 6000 feet AGL
Clouds: broken clouds at 6000 feet AGL
overcast cloud deck at 7500 feet AGL
Weather: no significant weather observed at this time

METAR text: BGSF 200250Z AUTO 10009KT 9999NDV OVC060/// 07/02 Q1010
Conditions at: BGSF (SONDRE STROMFJOR, GL) observed 0250 UTC 20 August 2019
Temperature: 7.0°C (45°F)
Dewpoint: 2.0°C (36°F) [RH = 70%]
Pressure (altimeter): 29.82 inches Hg (1010.0 mb)
Winds: from the E (100 degrees) at 10 MPH (9 knots; 4.6 m/s)
Visibility: missing
Ceiling: 6000 feet AGL
Clouds: overcast cloud deck at 6000 feet AGL
Weather: no significant weather observed at this time

METAR text: BGSF 200150Z AUTO 06004KT 010V100 9999NDV OVC055/// 07/02 Q1011
Conditions at: BGSF (SONDRE STROMFJOR, GL) observed 0150 UTC 20 August 2019
Temperature: 7.0°C (45°F)
Dewpoint: 2.0°C (36°F) [RH = 70%]
Pressure (altimeter): 29.85 inches Hg (1011.0 mb)
Winds: from the ENE (60 degrees) at 5 MPH (4 knots; 2.1 m/s)
Visibility: missing
Ceiling: 5500 feet AGL
Clouds: overcast cloud deck at 5500 feet AGL
Weather: no significant weather observed at this time

METAR text: BGSF 200050Z AUTO 08010KT 9999NDV BKN055/// 08/02 Q1011
Conditions at: BGSF (SONDRE STROMFJOR, GL) observed 0050 UTC 20 August 2019
Temperature: 8.0°C (46°F)
Dewpoint: 2.0°C (36°F) [RH = 66%]
Pressure (altimeter): 29.85 inches Hg (1011.0 mb)
Winds: from the E (80 degrees) at 12 MPH (10 knots; 5.1 m/s)
Visibility: missing
Ceiling: 5500 feet AGL
Clouds: broken clouds at 5500 feet AGL
Weather: no significant weather observed at this time

METAR text: BGSF 192350Z AUTO 08010KT 9999NDV BKN050/// OVC065/// 09/03 Q1011
Conditions at: BGSF (SONDRE STROMFJOR, GL) observed 2350 UTC 19 August 2019
Temperature: 9.0°C (48°F)
Dewpoint: 3.0°C (37°F) [RH = 66%]
Pressure (altimeter): 29.85 inches Hg (1011.0 mb)
Winds: from the E (80 degrees) at 12 MPH (10 knots; 5.1 m/s)
Visibility: missing
Ceiling: 5000 feet AGL
Clouds: broken clouds at 5000 feet AGL
overcast cloud deck at 6500 feet AGL
Weather: no significant weather observed at this time

METAR text: BGSF 192250Z AUTO 07010KT 9999NDV OVC060/// 11/04 Q1010
Conditions at: BGSF (SONDRE STROMFJOR, GL) observed 2250 UTC 19 August 2019
Temperature: 11.0°C (52°F)
Dewpoint: 4.0°C (39°F) [RH = 62%]
Pressure (altimeter): 29.82 inches Hg (1010.0 mb)
Winds: from the ENE (70 degrees) at 12 MPH (10 knots; 5.1 m/s)
Visibility: missing
Ceiling: 6000 feet AGL
Clouds: overcast cloud deck at 6000 feet AGL
Weather: no significant weather observed at this time

METAR text: BGSF 192150Z AUTO 06008KT 9999NDV OVC050/// 12/04 Q1010
Conditions at: BGSF (SONDRE STROMFJOR, GL) observed 2150 UTC 19 August 2019
Temperature: 12.0°C (54°F)
Dewpoint: 4.0°C (39°F) [RH = 58%]
Pressure (altimeter): 29.82 inches Hg (1010.0 mb)
Winds: from the ENE (60 degrees) at 9 MPH (8 knots; 4.1 m/s)
Visibility: missing
Ceiling: 5000 feet AGL
Clouds: overcast cloud deck at 5000 feet AGL
Weather: no significant weather observed at this time

METAR text: BGSF 192050Z AUTO 10009KT 9999NDV BKN055/// BKN070/// 13/05 Q1010
Conditions at: BGSF (SONDRE STROMFJOR, GL) observed 2050 UTC 19 August 2019
Temperature: 13.0°C (55°F)
Dewpoint: 5.0°C (41°F) [RH = 58%]
Pressure (altimeter): 29.82 inches Hg (1010.0 mb)
Winds: from the E (100 degrees) at 10 MPH (9 knots; 4.6 m/s)
Visibility: missing
Ceiling: 5500 feet AGL
Clouds: broken clouds at 5500 feet AGL
broken clouds at 7000 feet AGL
Weather: no significant weather observed at this time

METAR text: BGSF 191950Z AUTO 09009KT 9999NDV NCD 13/05 Q1010
Conditions at: BGSF (SONDRE STROMFJOR, GL) observed 1950 UTC 19 August 2019
Temperature: 13.0°C (55°F)
Dewpoint: 5.0°C (41°F) [RH = 58%]
Pressure (altimeter): 29.82 inches Hg (1010.0 mb)
Winds: from the E (90 degrees) at 10 MPH (9 knots; 4.6 m/s)
Visibility: missing
Ceiling: at least 12,000 feet AGL
Clouds: sky clear below 12,000 feet AGL
Weather: no significant weather observed at this time

METAR text: BGSF 191850Z AUTO 10008KT 9999NDV NCD 14/06 Q1010
Conditions at: BGSF (SONDRE STROMFJOR, GL) observed 1850 UTC 19 August 2019
Temperature: 14.0°C (57°F)
Dewpoint: 6.0°C (43°F) [RH = 58%]
Pressure (altimeter): 29.82 inches Hg (1010.0 mb)
Winds: from the E (100 degrees) at 9 MPH (8 knots; 4.1 m/s)
Visibility: missing
Ceiling: at least 12,000 feet AGL
Clouds: sky clear below 12,000 feet AGL
Weather: no significant weather observed at this time

METAR text: BGSF 191750Z AUTO 06010KT 9999NDV FEW044/// 13/06 Q1010
Conditions at: BGSF (SONDRE STROMFJOR, GL) observed 1750 UTC 19 August 2019
Temperature: 13.0°C (55°F)
Dewpoint: 6.0°C (43°F) [RH = 62%]
Pressure (altimeter): 29.82 inches Hg (1010.0 mb)
Winds: from the ENE (60 degrees) at 12 MPH (10 knots; 5.1 m/s)
Visibility: missing
Ceiling: at least 12,000 feet AGL
Clouds: few clouds at 4400 feet AGL
Weather: no significant weather observed at this time

METAR text: BGSF 191650Z AUTO 06006KT 040V100 9999NDV FEW032/// BKN038/// 12/06 Q1011
Conditions at: BGSF (SONDRE STROMFJOR, GL) observed 1650 UTC 19 August 2019
Temperature: 12.0°C (54°F)
Dewpoint: 6.0°C (43°F) [RH = 67%]
Pressure (altimeter): 29.85 inches Hg (1011.0 mb)
Winds: from the ENE (60 degrees) at 7 MPH (6 knots; 3.1 m/s)
Visibility: missing
Ceiling: 3800 feet AGL
Clouds: few clouds at 3200 feet AGL
broken clouds at 3800 feet AGL
Weather: no significant weather observed at this time

METAR text: BGSF 191550Z AUTO 07003KT 9999NDV SCT028/// OVC034/// 12/06 Q1011
Conditions at: BGSF (SONDRE STROMFJOR, GL) observed 1550 UTC 19 August 2019
Temperature: 12.0°C (54°F)
Dewpoint: 6.0°C (43°F) [RH = 67%]
Pressure (altimeter): 29.85 inches Hg (1011.0 mb)
Winds: from the ENE (70 degrees) at 3 MPH (3 knots; 1.5 m/s)
Visibility: missing
Ceiling: 3400 feet AGL
Clouds: scattered clouds at 2800 feet AGL
overcast cloud deck at 3400 feet AGL
Weather: no significant weather observed at this time

METAR text: BGSF 191450Z AUTO 07004KT 040V130 9999NDV BKN033/// 11/06 Q1011
Conditions at: BGSF (SONDRE STROMFJOR, GL) observed 1450 UTC 19 August 2019
Temperature: 11.0°C (52°F)
Dewpoint: 6.0°C (43°F) [RH = 71%]
Pressure (altimeter): 29.85 inches Hg (1011.0 mb)
Winds: from the ENE (70 degrees) at 5 MPH (4 knots; 2.1 m/s)
Visibility: missing
Ceiling: 3300 feet AGL
Clouds: broken clouds at 3300 feet AGL
Weather: no significant weather observed at this time

METAR text: BGSF 191350Z AUTO 09004KT 050V140 9999NDV SCT024/// BKN031/// OVC045/// 10/06 Q1011
Conditions at: BGSF (SONDRE STROMFJOR, GL) observed 1350 UTC 19 August 2019
Temperature: 10.0°C (50°F)
Dewpoint: 6.0°C (43°F) [RH = 76%]
Pressure (altimeter): 29.85 inches Hg (1011.0 mb)
Winds: from the E (90 degrees) at 5 MPH (4 knots; 2.1 m/s)
Visibility: missing
Ceiling: 3100 feet AGL
Clouds: scattered clouds at 2400 feet AGL
broken clouds at 3100 feet AGL
overcast cloud deck at 4500 feet AGL
Weather: no significant weather observed at this time

METAR text: BGSF 191250Z AUTO 06006KT 9999NDV BKN022/// BKN026/// OVC038/// 09/05 Q1011
Conditions at: BGSF (SONDRE STROMFJOR, GL) observed 1250 UTC 19 August 2019
Temperature: 9.0°C (48°F)
Dewpoint: 5.0°C (41°F) [RH = 76%]
Pressure (altimeter): 29.85 inches Hg (1011.0 mb)
Winds: from the ENE (60 degrees) at 7 MPH (6 knots; 3.1 m/s)
Visibility: missing
Ceiling: 2200 feet AGL
Clouds: broken clouds at 2200 feet AGL
broken clouds at 2600 feet AGL
overcast cloud deck at 3800 feet AGL
Weather: no significant weather observed at this time

METAR text: BGSF 191150Z AUTO 06006KT 9999NDV FEW017/// SCT023/// OVC047/// 08/04 Q1011
Conditions at: BGSF (SONDRE STROMFJOR, GL) observed 1150 UTC 19 August 2019
Temperature: 8.0°C (46°F)
Dewpoint: 4.0°C (39°F) [RH = 76%]
Pressure (altimeter): 29.85 inches Hg (1011.0 mb)
Winds: from the ENE (60 degrees) at 7 MPH (6 knots; 3.1 m/s)
Visibility: missing
Ceiling: 4700 feet AGL
Clouds: few clouds at 1700 feet AGL
scattered clouds at 2300 feet AGL
overcast cloud deck at 4700 feet AGL
Weather: no significant weather observed at this time

METAR text: BGSF 191050Z AUTO 05006KT 9999NDV BKN017/// OVC020/// 08/04 Q1011
Conditions at: BGSF (SONDRE STROMFJOR, GL) observed 1050 UTC 19 August 2019
Temperature: 8.0°C (46°F)
Dewpoint: 4.0°C (39°F) [RH = 76%]
Pressure (altimeter): 29.85 inches Hg (1011.0 mb)
Winds: from the NE (50 degrees) at 7 MPH (6 knots; 3.1 m/s)
Visibility: missing
Ceiling: 1700 feet AGL
Clouds: broken clouds at 1700 feet AGL
overcast cloud deck at 2000 feet AGL
Weather: no significant weather observed at this time

METAR text: BGSF 190950Z AUTO 04006KT 9999NDV BKN019/// OVC050/// 07/03 Q1011
Conditions at: BGSF (SONDRE STROMFJOR, GL) observed 0950 UTC 19 August 2019
Temperature: 7.0°C (45°F)
Dewpoint: 3.0°C (37°F) [RH = 76%]
Pressure (altimeter): 29.85 inches Hg (1011.0 mb)
Winds: from the NE (40 degrees) at 7 MPH (6 knots; 3.1 m/s)
Visibility: missing
Ceiling: 1900 feet AGL
Clouds: broken clouds at 1900 feet AGL
overcast cloud deck at 5000 feet AGL
Weather: no significant weather observed at this time

METAR text: BGSF 190850Z AUTO 05006KT 9999NDV SCT019/// BKN038/// OVC050/// 07/03 Q1011
Conditions at: BGSF (SONDRE STROMFJOR, GL) observed 0850 UTC 19 August 2019
Temperature: 7.0°C (45°F)
Dewpoint: 3.0°C (37°F) [RH = 76%]
Pressure (altimeter): 29.85 inches Hg (1011.0 mb)
Winds: from the NE (50 degrees) at 7 MPH (6 knots; 3.1 m/s)
Visibility: missing
Ceiling: 3800 feet AGL
Clouds: scattered clouds at 1900 feet AGL
broken clouds at 3800 feet AGL
overcast cloud deck at 5000 feet AGL
Weather: no significant weather observed at this time

Forecast for: COR
Text: TAF COR BGSF 201752Z 2018/2124 08008KT 9999 SCT050
Forecast period: 1800 UTC 20 August 2019 to 1200 UTC 21 August 2019
Forecast type: FROM: standard forecast or significant change
Winds: from the E (80 degrees) at 9 MPH (8 knots; 4.1 m/s)
Visibility: 6 or more miles 10+ km)
Ceiling: at least 12,000 feet AGL
Clouds: scattered clouds at 5000 feet AGL
Weather: no significant weather forecast for this period
Text: BECMG 2112/2114 VRB08KT BKN050
Forecast period: 1200 UTC 21 August 2019 to 0000 UTC 22 August 2019
Forecast type: BECOMING: Conditions expected to become as follows by 1400 UTC 21 August 2019
Winds: variable direction winds at 9 MPH (8 knots; 4.1 m/s)
Visibility: 6 or more miles 10+ km)
Ceiling: 5000 feet AGL
Clouds: broken clouds at 5000 feet AGL
Weather: no significant weather forecast for this period
Text: TEMPO 2120/2124 -SHRA BKN022
Forecast period: 2000 UTC 21 August 2019 to 0000 UTC 22 August 2019
Forecast type: TEMPORARY: The following changes expected for less than half the time period
Visibility: missing
Ceiling: 2200 feet AGL
Clouds: broken clouds at 2200 feet AGL
Weather: -SHRA  (light rain showers)